Time;durP1;ratioP1;P1;durP2;ratioP2;P2;SDS_P1;SDS_P2;PMS_P1;PMS_P2;Temp;Humidity;BMP_temperature;BMP_pressure;BME280_temperature;BME280_humidity;BME280_pressure;Samples;Min_cycle;Max_cycle;Signal;HPM_P1;HPM_P2
2022/12/02 00:01:01;;;;;;;12.10;8.80;;;21.00;40.80;;;;;;5010503;28;20061;-62
2022/12/02 00:03:29;;;;;;;10.82;8.23;;;21.00;40.80;;;;;;5006371;28;20042;-62
2022/12/02 00:05:56;;;;;;;10.07;7.93;;;21.00;40.80;;;;;;5010484;28;20061;-62
2022/12/02 00:08:27;;;;;;;10.07;7.75;;;21.00;40.80;;;;;;5010909;28;20370;-62
2022/12/02 00:10:56;;;;;;;10.60;7.88;;;20.90;40.70;;;;;;5010773;28;20137;-62
2022/12/02 00:13:30;;;;;;;15.38;9.70;;;20.90;40.70;;;;;;5010021;28;20407;-62
2022/12/02 00:16:00;;;;;;;12.48;8.40;;;21.00;40.80;;;;;;5010667;28;20061;-62
2022/12/02 00:18:27;;;;;;;10.85;7.55;;;20.90;40.70;;;;;;5010403;28;20053;-63
2022/12/02 00:20:55;;;;;;;11.68;8.70;;;20.90;40.70;;;;;;5010137;28;20111;-61
2022/12/02 00:23:23;;;;;;;11.77;8.68;;;20.90;40.70;;;;;;4992359;28;20050;-61
2022/12/02 00:25:52;;;;;;;12.25;8.18;;;21.00;40.80;;;;;;5010591;28;20056;-62
2022/12/02 00:28:20;;;;;;;11.07;8.20;;;20.90;40.70;;;;;;4992988;28;20045;-61
2022/12/02 00:30:48;;;;;;;11.68;8.38;;;21.00;40.70;;;;;;5009980;28;20053;-62
2022/12/02 00:33:17;;;;;;;11.32;8.50;;;20.90;40.70;;;;;;5009979;28;20140;-61
2022/12/02 00:35:44;;;;;;;12.73;9.07;;;20.90;40.70;;;;;;5009807;28;20058;-62
2022/12/02 00:38:11;;;;;;;10.52;8.05;;;20.90;40.70;;;;;;5010224;28;20061;-62
2022/12/02 00:40:38;;;;;;;10.70;8.13;;;20.90;40.70;;;;;;5006544;28;20050;-61
2022/12/02 00:48:40;;;;;;;11.48;8.30;;;20.90;40.60;;;;;;5009775;28;20050;-62
2022/12/02 00:51:07;;;;;;;12.70;8.88;;;20.90;40.60;;;;;;5010157;28;20050;-62
2022/12/02 00:53:35;;;;;;;11.40;8.52;;;20.90;40.60;;;;;;5009496;28;20058;-62
2022/12/02 00:56:02;;;;;;;12.45;9.43;;;20.90;40.60;;;;;;5009536;28;20050;-62
2022/12/02 00:58:29;;;;;;;12.27;9.02;;;20.90;40.60;;;;;;4992482;28;20050;-62
2022/12/02 01:00:56;;;;;;;10.52;8.35;;;20.90;40.60;;;;;;5009698;28;20397;-62
2022/12/02 01:03:23;;;;;;;12.65;8.73;;;20.90;40.60;;;;;;5009299;28;20042;-62
2022/12/02 01:05:51;;;;;;;13.40;9.45;;;20.90;40.60;;;;;;5009241;28;20050;-62
2022/12/02 01:08:18;;;;;;;11.40;8.77;;;20.90;40.60;;;;;;4991978;28;20046;-62
2022/12/02 01:10:45;;;;;;;12.05;8.60;;;20.90;40.60;;;;;;5009225;28;20050;-62
2022/12/02 01:13:12;;;;;;;12.93;8.88;;;20.90;40.60;;;;;;5009165;28;20046;-61
2022/12/02 01:15:39;;;;;;;14.60;9.25;;;20.90;40.60;;;;;;5009276;28;20050;-62
2022/12/02 01:18:06;;;;;;;11.80;8.85;;;20.90;40.50;;;;;;5009432;28;20060;-62
2022/12/02 01:20:33;;;;;;;13.68;8.85;;;20.90;40.50;;;;;;5004584;28;20053;-61
2022/12/02 01:23:00;;;;;;;12.55;9.20;;;20.90;40.40;;;;;;5009123;28;20056;-61
2022/12/02 01:25:28;;;;;;;11.73;8.15;;;20.90;40.40;;;;;;5009466;28;20046;-61
2022/12/02 01:27:55;;;;;;;12.20;8.95;;;20.90;40.40;;;;;;5010107;28;20046;-62
2022/12/02 01:30:23;;;;;;;10.82;8.43;;;20.90;40.30;;;;;;5009406;28;20053;-61
2022/12/02 01:32:50;;;;;;;10.52;8.35;;;20.90;40.30;;;;;;5008779;28;20054;-62
2022/12/02 01:35:18;;;;;;;11.05;8.82;;;20.90;40.30;;;;;;5008259;28;20061;-61
2022/12/02 01:37:45;;;;;;;12.75;8.45;;;20.90;40.30;;;;;;5009601;28;20050;-62
2022/12/02 01:40:13;;;;;;;12.48;9.18;;;20.90;40.30;;;;;;4991455;28;20046;-62
2022/12/02 01:42:42;;;;;;;13.65;9.40;;;20.90;40.30;;;;;;5009210;28;20061;-63
2022/12/02 01:45:10;;;;;;;13.73;8.98;;;20.90;40.30;;;;;;5009186;28;20069;-62
2022/12/02 01:47:37;;;;;;;11.30;8.43;;;20.90;40.30;;;;;;5009595;28;20042;-62
2022/12/02 01:50:08;;;;;;;12.48;8.30;;;20.90;40.30;;;;;;5009396;28;20050;-62
2022/12/02 01:52:35;;;;;;;12.23;9.20;;;20.90;40.30;;;;;;5008923;28;20050;-62
2022/12/02 01:55:05;;;;;;;10.45;8.35;;;20.90;40.30;;;;;;5004572;28;20053;-61
2022/12/02 01:57:32;;;;;;;12.25;8.82;;;20.90;40.30;;;;;;5009177;28;20042;-61
2022/12/02 01:59:59;;;;;;;12.50;9.18;;;20.90;40.30;;;;;;5009254;28;20049;-62
2022/12/02 02:02:29;;;;;;;11.85;8.45;;;20.80;40.20;;;;;;5009139;28;20049;-61
2022/12/02 02:05:10;;;;;;;9.70;7.97;;;20.90;40.30;;;;;;5009080;28;20108;-62
2022/12/02 02:07:39;;;;;;;12.95;8.18;;;20.80;40.20;;;;;;5009515;28;20060;-61
2022/12/02 02:10:07;;;;;;;12.50;9.35;;;20.80;40.20;;;;;;5008614;28;20381;-62
2022/12/02 02:12:35;;;;;;;13.27;8.90;;;20.90;40.30;;;;;;5009169;28;20061;-61
2022/12/02 02:15:06;;;;;;;11.73;8.75;;;20.90;40.30;;;;;;5008504;28;20046;-61
2022/12/02 02:17:34;;;;;;;12.32;8.40;;;20.90;40.30;;;;;;5008659;28;20060;-62
2022/12/02 02:20:03;;;;;;;11.80;8.80;;;20.80;40.20;;;;;;5009032;28;20045;-62
2022/12/02 02:22:54;;;;;;;11.52;8.43;;;20.90;40.30;;;;;;5008410;28;20103;-62
2022/12/02 02:25:23;;;;;;;11.73;8.15;;;20.80;40.20;;;;;;5008778;28;20046;-62
2022/12/02 02:27:54;;;;;;;12.05;8.93;;;20.80;40.30;;;;;;5008554;28;20065;-62
2022/12/02 02:30:21;;;;;;;;;;;20.80;40.20;;;;;;5009519;28;20515;-61
2022/12/02 02:32:49;;;;;;;12.57;9.35;;;20.80;40.20;;;;;;5004248;28;19925;-61
2022/12/02 02:35:18;;;;;;;12.68;8.63;;;20.90;40.30;;;;;;5008609;28;20046;-62
2022/12/02 02:37:46;;;;;;;10.45;8.40;;;20.80;40.20;;;;;;5008030;28;20052;-62
2022/12/02 02:40:15;;;;;;;12.85;8.88;;;20.80;40.20;;;;;;4991744;28;20050;-62
2022/12/02 02:42:53;;;;;;;12.15;8.05;;;20.80;40.20;;;;;;5008594;28;20057;-62
2022/12/02 02:45:23;;;;;;;10.30;8.10;;;20.80;40.20;;;;;;5008472;28;20744;-62
2022/12/02 02:47:51;;;;;;;12.38;9.13;;;20.90;40.20;;;;;;4994917;28;20049;-61
2022/12/02 02:50:19;;;;;;;11.32;8.40;;;20.80;40.10;;;;;;5012461;28;20111;-62
2022/12/02 02:52:47;;;;;;;10.88;8.07;;;20.80;40.10;;;;;;5011696;28;20046;-61
2022/12/02 02:55:20;;;;;;;11.48;8.95;;;20.80;40.10;;;;;;5011887;28;20506;-62
2022/12/02 02:57:47;;;;;;;9.18;8.18;;;20.80;40.10;;;;;;5011657;28;20472;-62
2022/12/02 03:00:16;;;;;;;13.48;8.57;;;20.80;40.20;;;;;;5011417;28;20068;-62
2022/12/02 03:02:46;;;;;;;12.88;8.32;;;20.90;40.20;;;;;;5011490;28;20053;-61
2022/12/02 03:05:13;;;;;;;12.00;8.40;;;20.80;40.10;;;;;;5007482;28;20056;-62
2022/12/02 03:07:40;;;;;;;11.07;8.00;;;20.80;40.10;;;;;;5011647;28;20053;-62
2022/12/02 03:10:09;;;;;;;10.30;8.05;;;20.80;40.10;;;;;;5011832;28;20073;-61
2022/12/02 03:12:36;;;;;;;10.32;8.05;;;20.80;40.10;;;;;;5011069;28;20046;-61
2022/12/02 03:15:05;;;;;;;10.20;8.10;;;20.80;40.10;;;;;;5011907;28;20041;-61
2022/12/02 03:17:33;;;;;;;10.63;8.10;;;20.80;40.10;;;;;;5011257;28;20056;-61
2022/12/02 03:20:00;;;;;;;11.38;8.30;;;20.80;40.10;;;;;;5011057;28;20056;-62
2022/12/02 03:22:28;;;;;;;11.85;9.27;;;20.80;40.10;;;;;;5011943;28;20407;-61
2022/12/02 03:24:55;;;;;;;10.60;7.70;;;20.80;40.10;;;;;;5010747;28;20046;-61
2022/12/02 03:27:23;;;;;;;12.32;9.10;;;20.80;40.10;;;;;;5011239;28;20054;-62
2022/12/02 03:29:51;;;;;;;12.45;8.05;;;20.80;40.10;;;;;;5005310;28;20054;-62
2022/12/02 03:32:18;;;;;;;11.38;8.27;;;20.80;40.20;;;;;;5011620;28;20145;-61
2022/12/02 03:34:46;;;;;;;12.07;7.93;;;20.80;40.10;;;;;;5010168;28;20054;-61
2022/12/02 03:37:13;;;;;;;11.00;7.50;;;20.80;40.10;;;;;;5006663;28;20132;-61
2022/12/02 03:39:40;;;;;;;9.95;7.78;;;20.80;40.10;;;;;;5011530;28;20065;-61
2022/12/02 03:42:08;;;;;;;11.50;8.00;;;20.80;40.10;;;;;;4993875;28;20050;-62
2022/12/02 03:44:35;;;;;;;11.23;8.75;;;20.80;40.10;;;;;;5010770;28;20081;-61
2022/12/02 03:47:03;;;;;;;9.38;7.47;;;20.80;40.00;;;;;;5010496;28;20057;-62
2022/12/02 03:49:32;;;;;;;9.77;7.32;;;20.80;40.00;;;;;;5010966;28;20057;-61
2022/12/02 03:51:59;;;;;;;12.68;8.25;;;20.80;40.00;;;;;;5011132;28;20128;-62
2022/12/02 03:54:27;;;;;;;8.82;7.07;;;20.90;40.00;;;;;;5010586;28;20515;-62
2022/12/02 03:56:54;;;;;;;9.70;7.13;;;20.80;39.90;;;;;;5010256;28;20060;-61
2022/12/02 03:59:25;;;;;;;9.55;7.25;;;20.80;39.90;;;;;;5008590;28;20048;-61
2022/12/02 04:01:53;;;;;;;11.60;8.27;;;20.80;39.90;;;;;;4990999;28;20510;-62
2022/12/02 04:04:20;;;;;;;10.35;7.60;;;20.80;39.90;;;;;;4990971;28;20050;-61
2022/12/02 04:06:47;;;;;;;10.88;7.78;;;20.80;39.90;;;;;;4990960;28;20053;-61
2022/12/02 04:09:14;;;;;;;8.75;7.20;;;20.80;39.90;;;;;;4991484;28;20061;-61
2022/12/02 04:11:41;;;;;;;10.32;7.60;;;20.80;39.90;;;;;;4990944;28;20054;-62
2022/12/02 04:14:08;;;;;;;9.88;7.68;;;20.80;39.90;;;;;;4986709;28;20065;-62
2022/12/02 04:16:35;;;;;;;10.70;8.10;;;20.80;39.90;;;;;;4991514;28;20046;-61
2022/12/02 04:19:02;;;;;;;10.38;7.00;;;20.80;39.90;;;;;;4990751;28;20050;-61
2022/12/02 04:21:29;;;;;;;9.20;7.00;;;20.80;39.90;;;;;;4991122;28;20050;-61
2022/12/02 04:23:56;;;;;;;10.57;7.43;;;20.80;39.90;;;;;;5010618;28;20481;-61
2022/12/02 04:26:23;;;;;;;9.52;7.43;;;20.80;39.90;;;;;;5010920;28;20050;-61
2022/12/02 04:28:50;;;;;;;9.50;7.70;;;20.80;39.90;;;;;;5010518;28;20060;-61
2022/12/02 04:31:17;;;;;;;10.40;7.13;;;20.80;39.90;;;;;;5010194;28;20057;-61
2022/12/02 04:33:44;;;;;;;9.30;7.05;;;20.80;39.90;;;;;;5009641;28;20136;-61
2022/12/02 04:36:11;;;;;;;8.77;6.95;;;20.80;39.90;;;;;;5009820;28;20058;-61
2022/12/02 04:38:38;;;;;;;8.98;6.70;;;20.80;39.90;;;;;;5010133;28;20041;-61
2022/12/02 04:41:06;;;;;;;7.82;6.90;;;20.80;39.90;;;;;;5009990;28;20054;-61
2022/12/02 04:43:33;;;;;;;8.35;6.80;;;20.80;39.90;;;;;;5009758;28;20046;-61
2022/12/02 04:46:00;;;;;;;8.27;6.57;;;20.80;39.90;;;;;;5010117;28;20049;-61
2022/12/02 04:48:27;;;;;;;8.68;6.65;;;20.80;39.90;;;;;;5009809;28;20042;-61
2022/12/02 04:50:54;;;;;;;9.00;6.78;;;20.80;39.90;;;;;;5005822;28;20054;-61
2022/12/02 04:53:22;;;;;;;8.73;6.60;;;20.80;39.90;;;;;;5009930;28;20046;-62
2022/12/02 04:55:49;;;;;;;8.13;6.63;;;20.80;39.90;;;;;;5009479;28;20130;-61
2022/12/02 04:58:16;;;;;;;8.02;6.47;;;20.70;39.90;;;;;;5010449;28;20066;-61
2022/12/02 05:00:43;;;;;;;8.43;6.90;;;20.80;39.90;;;;;;5008980;28;20677;-61
2022/12/02 05:03:10;;;;;;;8.35;6.93;;;20.80;39.90;;;;;;4991880;28;20054;-61
2022/12/02 05:05:38;;;;;;;8.38;6.70;;;20.70;39.80;;;;;;5009479;28;20050;-62
2022/12/02 05:08:05;;;;;;;7.35;6.38;;;20.70;39.90;;;;;;5009730;28;20053;-62
2022/12/02 05:10:32;;;;;;;9.32;7.25;;;20.80;39.90;;;;;;5009062;28;20407;-62
2022/12/02 05:12:59;;;;;;;9.75;7.25;;;20.80;39.90;;;;;;5009408;28;20049;-62
2022/12/02 05:15:26;;;;;;;9.07;7.10;;;20.70;39.80;;;;;;5006232;28;20451;-62
2022/12/02 05:17:53;;;;;;;8.05;5.85;;;20.80;39.90;;;;;;5009174;28;20073;-61
2022/12/02 05:20:20;;;;;;;8.35;5.57;;;20.80;39.90;;;;;;4996316;28;20045;-61
2022/12/02 05:22:47;;;;;;;7.95;6.78;;;20.70;39.80;;;;;;4980423;28;20511;-61
2022/12/02 05:25:14;;;;;;;7.72;6.57;;;20.70;39.90;;;;;;4975597;28;20492;-61
2022/12/02 05:27:41;;;;;;;10.50;7.00;;;20.70;39.80;;;;;;5008963;28;20050;-61
2022/12/02 05:30:11;;;;;;;8.98;6.43;;;20.70;39.80;;;;;;5009301;28;20072;-61
2022/12/02 05:32:38;;;;;;;7.00;6.03;;;20.70;39.80;;;;;;5009754;28;20050;-61
2022/12/02 05:35:05;;;;;;;8.77;6.38;;;20.70;39.80;;;;;;5009687;28;20432;-61
2022/12/02 05:37:32;;;;;;;10.57;8.07;;;20.70;39.80;;;;;;5002714;28;20054;-62
2022/12/02 05:40:00;;;;;;;9.07;6.70;;;20.70;39.60;;;;;;5010958;28;20136;-62
2022/12/02 05:42:28;;;;;;;9.02;7.38;;;20.80;39.50;;;;;;5011090;28;20331;-62
2022/12/02 05:44:59;;;;;;;9.68;7.55;;;20.70;39.40;;;;;;5015366;28;20045;-62
2022/12/02 05:47:29;;;;;;;10.73;7.63;;;20.70;39.40;;;;;;5007957;28;20057;-62
2022/12/02 05:49:59;;;;;;;11.48;8.00;;;20.70;39.40;;;;;;4999050;28;20042;-62
2022/12/02 05:52:28;;;;;;;9.60;7.10;;;20.70;39.50;;;;;;5005303;28;20075;-62
2022/12/02 05:54:58;;;;;;;10.07;7.70;;;20.70;39.40;;;;;;5007599;28;20050;-62
2022/12/02 05:57:28;;;;;;;9.73;8.05;;;20.70;39.50;;;;;;5007491;28;20463;-62
2022/12/02 06:00:13;;;;;;;9.05;6.88;;;20.70;39.40;;;;;;5005769;28;20515;-62
2022/12/02 06:02:57;;;;;;;10.55;7.05;;;20.70;39.40;;;;;;5008617;28;20046;-62
2022/12/02 06:05:28;;;;;;;9.40;7.03;;;20.70;39.40;;;;;;5002522;28;20478;-62
2022/12/02 06:07:58;;;;;;;9.07;6.90;;;20.80;39.50;;;;;;4980021;28;20046;-62
2022/12/02 06:10:30;;;;;;;9.13;7.32;;;20.80;39.50;;;;;;5003883;28;20137;-62
2022/12/02 06:13:09;;;;;;;9.68;6.90;;;20.80;39.40;;;;;;5006404;28;20500;-61
2022/12/02 06:15:37;;;;;;;10.30;7.45;;;20.80;39.40;;;;;;5004029;28;20053;-61
2022/12/02 06:18:17;;;;;;;11.93;7.45;;;20.80;39.30;;;;;;5006395;28;20048;-61
2022/12/02 06:20:46;;;;;;;9.75;7.57;;;20.80;39.30;;;;;;4998977;28;20506;-60
2022/12/02 06:23:19;;;;;;;8.68;7.10;;;20.80;39.30;;;;;;4992912;28;20053;-60
2022/12/02 06:25:50;;;;;;;10.27;7.25;;;20.80;39.30;;;;;;5008805;28;20385;-60
2022/12/02 06:28:28;;;;;;;10.40;7.32;;;20.80;39.30;;;;;;4999048;28;20046;-59
2022/12/02 06:31:08;;;;;;;12.20;8.25;;;20.90;39.30;;;;;;5002750;28;20108;-60
2022/12/02 06:33:37;;;;;;;10.47;8.03;;;20.90;39.40;;;;;;5002740;28;20137;-60
2022/12/02 06:36:10;;;;;;;11.40;7.50;;;20.90;39.40;;;;;;5006909;28;20052;-62
2022/12/02 06:38:47;;;;;;;12.57;8.32;;;20.90;39.50;;;;;;4983050;28;20145;-63
2022/12/02 06:41:21;;;;;;;14.65;8.85;;;21.00;39.60;;;;;;5001910;28;20068;-61
2022/12/02 06:46:36;;;;;;;12.73;8.68;;;21.00;39.50;;;;;;5009190;28;20069;-60
2022/12/02 06:49:20;;;;;;;12.00;8.02;;;21.10;39.50;;;;;;4987631;28;20050;-61
2022/12/02 06:51:54;;;;;;;9.57;8.07;;;21.10;39.50;;;;;;5007095;28;20045;-60
2022/12/02 06:54:28;;;;;;;10.93;7.85;;;21.10;39.40;;;;;;5004575;28;20046;-61
2022/12/02 06:56:58;;;;;;;11.13;8.50;;;21.10;39.40;;;;;;4994931;28;20069;-60
2022/12/02 06:59:26;;;;;;;12.55;8.65;;;21.20;39.40;;;;;;4997646;28;20046;-60
2022/12/02 07:01:55;;;;;;;12.15;8.57;;;21.20;39.30;;;;;;4999299;28;20068;-59
2022/12/02 07:04:32;;;;;;;10.73;8.32;;;21.20;39.50;;;;;;4997864;28;20046;-60
2022/12/02 07:07:19;;;;;;;13.05;8.35;;;21.20;39.70;;;;;;4988723;28;20064;-60
2022/12/02 07:09:51;;;;;;;10.77;8.43;;;21.30;39.90;;;;;;5001461;28;20052;-61
2022/12/02 07:12:28;;;;;;;10.70;8.07;;;21.30;40.00;;;;;;5002910;28;20054;-60
2022/12/02 07:14:58;;;;;;;11.35;8.35;;;21.30;40.20;;;;;;5003522;28;20042;-60
2022/12/02 07:17:30;;;;;;;12.05;8.80;;;21.40;40.40;;;;;;5005281;28;20046;-59
2022/12/02 07:20:05;;;;;;;12.07;8.30;;;21.40;40.40;;;;;;4983326;28;20056;-60
2022/12/02 07:22:40;;;;;;;11.45;8.18;;;21.50;40.50;;;;;;5000368;28;20506;-62
2022/12/02 07:25:30;;;;;;;11.35;8.43;;;21.50;40.50;;;;;;4997068;28;20102;-62
2022/12/02 07:27:58;;;;;;;12.57;8.40;;;21.50;40.40;;;;;;4999523;28;20049;-62
2022/12/02 07:30:29;;;;;;;14.18;9.20;;;21.50;40.30;;;;;;4998222;28;20042;-62
2022/12/02 07:32:58;;;;;;;11.60;8.43;;;21.60;40.30;;;;;;4997744;28;20137;-61
2022/12/02 07:35:26;;;;;;;11.63;9.10;;;21.60;40.30;;;;;;5000739;28;20065;-60
2022/12/02 07:37:54;;;;;;;12.68;8.52;;;21.60;40.30;;;;;;4996930;28;21077;-61
2022/12/02 07:40:21;;;;;;;12.95;8.20;;;21.60;40.40;;;;;;4980602;28;20057;-62
2022/12/02 07:42:48;;;;;;;11.43;8.82;;;21.70;40.60;;;;;;4998124;28;20057;-61
2022/12/02 07:45:17;;;;;;;11.65;8.57;;;21.70;40.60;;;;;;4999718;28;20401;-60
2022/12/02 07:47:45;;;;;;;13.40;7.95;;;21.70;40.60;;;;;;4996437;28;20054;-59
2022/12/02 07:50:14;;;;;;;10.75;7.97;;;21.70;40.70;;;;;;5006281;28;20057;-59
2022/12/02 07:52:41;;;;;;;14.60;8.52;;;21.80;40.80;;;;;;4983468;28;20058;-61
2022/12/02 07:55:08;;;;;;;12.13;8.85;;;21.80;40.80;;;;;;5002716;28;20046;-60
2022/12/02 07:57:37;;;;;;;10.93;8.13;;;21.80;40.80;;;;;;5001920;28;20058;-60
2022/12/02 08:00:07;;;;;;;12.20;8.50;;;21.80;41.30;;;;;;5001037;28;20484;-62
2022/12/02 08:02:34;;;;;;;9.93;8.25;;;21.90;40.80;;;;;;4996170;28;20060;-60
2022/12/02 08:05:02;;;;;;;10.20;8.35;;;21.90;40.70;;;;;;5001436;28;20133;-59
2022/12/02 08:07:29;;;;;;;11.85;8.43;;;22.00;40.70;;;;;;4997771;28;20046;-61
2022/12/02 08:09:56;;;;;;;9.88;7.80;;;22.00;40.60;;;;;;4997511;28;20049;-63
2022/12/02 08:12:23;;;;;;;11.70;7.90;;;22.00;40.50;;;;;;4984328;28;20089;-60
2022/12/02 08:14:51;;;;;;;13.23;8.85;;;22.10;40.50;;;;;;5001153;28;20057;-60
2022/12/02 08:17:18;;;;;;;10.65;8.52;;;22.10;40.40;;;;;;5003916;28;20042;-61
2022/12/02 08:19:45;;;;;;;11.45;7.90;;;22.10;40.30;;;;;;4983584;28;20050;-62
2022/12/02 08:22:12;;;;;;;14.43;8.90;;;22.10;40.30;;;;;;4994504;28;20137;-63
2022/12/02 08:24:40;;;;;;;13.30;9.10;;;22.10;40.70;;;;;;5004403;28;20471;-62
2022/12/02 08:27:07;;;;;;;9.60;7.75;;;22.20;40.20;;;;;;5001633;28;20053;-61
2022/12/02 08:29:34;;;;;;;12.55;8.40;;;22.20;40.20;;;;;;5002018;28;20049;-62
2022/12/02 08:32:02;;;;;;;13.13;8.70;;;22.20;40.20;;;;;;4998748;28;20085;-61
2022/12/02 08:34:30;;;;;;;11.18;8.32;;;22.20;40.10;;;;;;4993734;28;20286;-62
2022/12/02 08:36:58;;;;;;;12.98;8.57;;;22.30;40.10;;;;;;4997048;28;20084;-63
2022/12/02 08:39:25;;;;;;;12.63;8.05;;;22.30;40.00;;;;;;5000250;28;20137;-63
2022/12/02 08:41:52;;;;;;;11.52;8.07;;;22.40;40.00;;;;;;5002142;28;20054;-62
2022/12/02 08:44:19;;;;;;;11.32;8.75;;;22.40;39.90;;;;;;5003232;28;20042;-64
2022/12/02 08:46:46;;;;;;;10.93;8.20;;;22.40;39.90;;;;;;5003778;28;20081;-63
2022/12/02 08:49:20;;;;;;;12.50;8.27;;;22.50;39.90;;;;;;5000475;28;20050;-62
2022/12/02 08:51:47;;;;;;;11.63;8.80;;;22.50;39.80;;;;;;4999960;28;20053;-64
2022/12/02 08:54:14;;;;;;;11.30;8.13;;;22.50;39.80;;;;;;5002068;28;20042;-61
2022/12/02 08:56:42;;;;;;;12.88;8.40;;;22.50;39.70;;;;;;4993966;28;20145;-62
2022/12/02 08:59:10;;;;;;;13.85;8.27;;;22.50;39.60;;;;;;4985175;28;20056;-61
2022/12/02 09:01:37;;;;;;;11.73;8.35;;;22.60;39.60;;;;;;5002029;28;20053;-62
2022/12/02 09:04:05;;;;;;;11.50;8.63;;;22.60;39.50;;;;;;5002956;28;20072;-61
2022/12/02 09:06:32;;;;;;;9.82;8.18;;;22.60;39.40;;;;;;5001035;28;20052;-62
2022/12/02 09:09:04;;;;;;;10.35;8.18;;;22.60;39.40;;;;;;5001510;28;20053;-61
2022/12/02 09:11:31;;;;;;;14.40;8.48;;;22.60;39.30;;;;;;4984388;28;20045;-62
2022/12/02 09:13:59;;;;;;;10.27;7.80;;;22.70;39.30;;;;;;4996522;28;20373;-61
2022/12/02 09:16:26;;;;;;;9.52;8.23;;;22.70;39.30;;;;;;4999050;28;20434;-62
2022/12/02 09:18:54;;;;;;;9.35;7.80;;;22.70;39.30;;;;;;5000819;28;20415;-62
2022/12/02 09:21:22;;;;;;;13.68;7.95;;;22.70;39.20;;;;;;4992777;28;20058;-63
2022/12/02 09:23:50;;;;;;;10.80;7.65;;;22.80;39.20;;;;;;4999789;28;20052;-64
2022/12/02 09:26:17;;;;;;;9.93;7.80;;;22.80;39.10;;;;;;5000326;28;21661;-61
2022/12/02 09:28:45;;;;;;;9.10;7.35;;;22.80;39.10;;;;;;5003960;28;20050;-62
2022/12/02 09:31:13;;;;;;;12.07;7.63;;;22.80;39.20;;;;;;5001537;28;20046;-70
2022/12/02 09:33:41;;;;;;;11.63;8.38;;;22.80;39.30;;;;;;4994997;28;20096;-66
2022/12/02 09:36:08;;;;;;;10.07;7.53;;;22.90;39.30;;;;;;5002042;28;20424;-61
2022/12/02 09:38:36;;;;;;;9.82;7.90;;;22.90;39.30;;;;;;5000215;28;20045;-62
2022/12/02 09:41:03;;;;;;;8.80;7.65;;;22.90;39.30;;;;;;4998319;28;20280;-62
2022/12/02 09:43:31;;;;;;;9.25;7.10;;;23.00;39.30;;;;;;4996170;28;20764;-63
2022/12/02 09:45:59;;;;;;;9.85;7.03;;;23.00;39.10;;;;;;4996049;28;20589;-60
2022/12/02 09:48:27;;;;;;;9.27;7.53;;;23.00;39.10;;;;;;5000759;28;20421;-63
2022/12/02 09:50:57;;;;;;;15.18;7.95;;;23.00;39.10;;;;;;5004779;28;20132;-67
2022/12/02 09:53:30;;;;;;;10.98;7.63;;;23.10;39.10;;;;;;4996737;28;20046;-64
2022/12/02 09:55:57;;;;;;;9.52;7.25;;;23.10;39.00;;;;;;5003583;28;20058;-61
2022/12/02 09:58:26;;;;;;;9.55;7.13;;;23.10;38.90;;;;;;5002017;28;20041;-62
2022/12/02 10:00:53;;;;;;;8.75;7.07;;;23.10;38.90;;;;;;5004456;28;20064;-60
2022/12/02 10:03:25;;;;;;;10.18;6.90;;;23.10;38.90;;;;;;4985470;28;20050;-62
2022/12/02 10:05:53;;;;;;;8.88;6.82;;;23.10;38.90;;;;;;5002044;28;20085;-62
2022/12/02 10:08:24;;;;;;;8.40;6.53;;;23.20;38.80;;;;;;5001973;28;20599;-60
2022/12/02 10:10:55;;;;;;;14.60;7.60;;;23.20;38.70;;;;;;5001846;28;20052;-60
2022/12/02 10:13:25;;;;;;;8.82;6.25;;;23.30;38.60;;;;;;5000649;28;20049;-59
2022/12/02 10:15:53;;;;;;;;;;;23.30;38.60;;;;;;5004248;28;20488;-61
2022/12/02 10:18:24;;;;;;;7.70;6.35;;;23.30;38.50;;;;;;5001177;28;19925;-61
2022/12/02 10:20:52;;;;;;;10.45;6.88;;;23.40;38.50;;;;;;5001254;28;20050;-61
2022/12/02 10:23:27;;;;;;;9.82;6.20;;;23.40;38.40;;;;;;5001724;28;20052;-60
2022/12/02 10:26:11;;;;;;;9.65;5.95;;;23.50;38.30;;;;;;5002903;28;20488;-60
2022/12/02 10:28:40;;;;;;;9.15;6.60;;;23.40;38.20;;;;;;4984158;28;20411;-62
2022/12/02 10:31:14;;;;;;;8.70;6.18;;;23.50;38.30;;;;;;5004693;28;20060;-62
2022/12/02 10:33:53;;;;;;;8.13;5.90;;;23.50;38.20;;;;;;5006159;28;20052;-64
2022/12/02 10:36:36;;;;;;;8.27;5.93;;;23.40;38.20;;;;;;5001331;28;20050;-63
2022/12/02 10:39:22;;;;;;;8.60;6.03;;;23.40;38.20;;;;;;5005459;28;20527;-60
2022/12/02 10:42:12;;;;;;;9.63;6.43;;;23.40;38.30;;;;;;4978474;28;20060;-61
2022/12/02 10:44:43;;;;;;;;;;;23.40;38.40;;;;;;5000853;28;20050;-61
2022/12/02 10:47:23;;;;;;;8.55;5.47;;;23.40;38.30;;;;;;5002924;28;19921;-62
2022/12/02 10:49:58;;;;;;;6.88;5.85;;;23.30;38.30;;;;;;4996945;28;20411;-65
2022/12/02 10:52:34;;;;;;;8.35;5.97;;;23.30;38.40;;;;;;5005148;28;20563;-63
2022/12/02 10:55:02;;;;;;;7.45;5.13;;;23.30;39.00;;;;;;4989164;28;20045;-62
2022/12/02 10:57:32;;;;;;;9.95;5.03;;;23.30;38.50;;;;;;5001204;28;20811;-63
2022/12/02 11:00:19;;;;;;;6.35;5.13;;;23.30;38.50;;;;;;5002822;28;20516;-65
2022/12/02 11:02:56;;;;;;;8.60;6.18;;;23.20;38.40;;;;;;5003506;28;20050;-61
2022/12/02 11:05:30;;;;;;;5.88;5.28;;;23.20;38.50;;;;;;5007516;28;20137;-63
2022/12/02 11:08:19;;;;;;;8.40;5.25;;;23.20;38.50;;;;;;4982166;28;20053;-63
2022/12/02 11:10:50;;;;;;;10.90;4.78;;;23.20;38.50;;;;;;5007320;28;20038;-62
2022/12/02 11:13:43;;;;;;;7.93;5.40;;;23.10;38.40;;;;;;5008852;28;20045;-63
2022/12/02 11:16:44;;;;;;;7.57;5.70;;;23.10;38.30;;;;;;5003756;28;20042;-62
2022/12/02 11:19:43;;;;;;;6.75;5.28;;;23.10;38.30;;;;;;5004068;28;20050;-63
2022/12/02 11:22:48;;;;;;;5.50;4.78;;;23.10;38.20;;;;;;4999270;28;20376;-62
2022/12/02 11:25:55;;;;;;;6.75;4.95;;;23.00;38.00;;;;;;5003566;28;20053;-62
2022/12/02 11:28:34;;;;;;;7.32;6.28;;;23.00;38.00;;;;;;4990160;28;20038;-63
2022/12/02 11:31:22;;;;;;;6.15;5.55;;;22.90;38.00;;;;;;5006012;28;20054;-62
2022/12/02 11:34:00;;;;;;;6.78;5.50;;;22.90;38.00;;;;;;4988556;28;20049;-63
2022/12/02 11:36:34;;;;;;;8.25;5.40;;;22.80;37.90;;;;;;5007814;28;20457;-64
2022/12/02 11:39:05;;;;;;;6.30;5.25;;;22.80;38.00;;;;;;4984986;28;20046;-64
2022/12/02 11:42:13;;;;;;;7.20;5.45;;;22.80;38.00;;;;;;5004900;28;20054;-64
2022/12/02 11:44:40;;;;;;;8.25;5.97;;;22.70;38.00;;;;;;4981086;28;20069;-64
2022/12/02 11:47:28;;;;;;;6.55;5.55;;;22.70;38.00;;;;;;5005580;28;20056;-63
2022/12/02 11:50:11;;;;;;;6.53;5.53;;;22.70;38.10;;;;;;4980383;28;20455;-64
2022/12/02 11:52:58;;;;;;;6.05;5.35;;;22.60;38.10;;;;;;5008347;28;20474;-63
2022/12/02 11:55:40;;;;;;;7.88;6.78;;;22.60;38.10;;;;;;5004272;28;20407;-63
2022/12/02 11:58:28;;;;;;;6.68;5.68;;;22.60;38.20;;;;;;5000379;28;20046;-63
2022/12/02 12:01:11;;;;;;;6.40;5.72;;;22.60;38.20;;;;;;4989653;28;20062;-64
2022/12/02 12:03:41;;;;;;;9.45;6.68;;;22.50;38.20;;;;;;4999420;28;20594;-64
2022/12/02 12:06:10;;;;;;;;;;;22.50;38.30;;;;;;4997550;28;20403;-64
2022/12/02 12:08:39;;;;;;;7.43;6.22;;;22.50;38.30;;;;;;4995014;28;20412;-64
2022/12/02 12:11:23;;;;;;;8.52;6.82;;;22.50;38.40;;;;;;4997263;28;20072;-63
2022/12/02 12:14:22;;;;;;;9.40;6.32;;;22.50;38.60;;;;;;4998677;28;20058;-61
2022/12/02 12:16:50;;;;;;;7.82;5.90;;;22.50;38.90;;;;;;4980956;28;20046;-62
2022/12/02 12:19:28;;;;;;;8.50;6.38;;;22.50;39.00;;;;;;4998467;28;20057;-62
2022/12/02 12:21:56;;;;;;;7.60;5.65;;;22.50;39.10;;;;;;4999461;28;20129;-61
2022/12/02 12:24:25;;;;;;;9.40;6.18;;;22.50;39.10;;;;;;5000547;28;20041;-64
2022/12/02 12:27:08;;;;;;;8.02;5.85;;;22.50;39.20;;;;;;4984002;28;20579;-63
2022/12/02 12:29:39;;;;;;;9.70;6.03;;;22.40;39.20;;;;;;4998848;28;20058;-66
2022/12/02 12:32:08;;;;;;;11.07;6.50;;;22.50;39.30;;;;;;4998674;28;20058;-64
2022/12/02 12:34:36;;;;;;;10.10;6.82;;;22.50;39.30;;;;;;4983101;28;20137;-65
2022/12/02 12:37:03;;;;;;;8.57;6.57;;;22.50;39.50;;;;;;4994199;28;20058;-62
2022/12/02 12:39:30;;;;;;;9.63;6.43;;;22.50;39.60;;;;;;4980970;28;20049;-62
2022/12/02 12:41:57;;;;;;;12.27;6.50;;;22.50;39.80;;;;;;4997571;28;20050;-62
2022/12/02 12:44:28;;;;;;;10.95;6.72;;;22.50;39.80;;;;;;4998544;28;20449;-64
2022/12/02 12:47:02;;;;;;;8.20;6.53;;;22.50;39.80;;;;;;4999193;28;20037;-63
2022/12/02 12:49:31;;;;;;;13.30;7.15;;;22.50;39.90;;;;;;4978105;28;20050;-62
2022/12/02 12:52:05;;;;;;;13.13;7.18;;;22.60;40.00;;;;;;5059503;28;20485;-64
2022/12/02 12:54:34;;;;;;;14.77;7.13;;;22.60;40.10;;;;;;5046552;28;20041;-66
2022/12/02 12:57:01;;;;;;;9.48;7.07;;;22.60;40.10;;;;;;5035219;28;20144;-62
2022/12/02 12:59:29;;;;;;;9.02;5.95;;;22.60;40.00;;;;;;5035793;28;20049;-62
2022/12/02 13:01:56;;;;;;;10.70;6.38;;;22.60;40.00;;;;;;5036777;28;20056;-64
2022/12/02 13:04:23;;;;;;;8.50;7.07;;;22.60;40.10;;;;;;5035976;28;20080;-68
2022/12/02 13:06:51;;;;;;;13.80;8.13;;;22.60;40.00;;;;;;5040631;28;20041;-65
2022/12/02 13:09:18;;;;;;;12.27;7.13;;;22.60;39.80;;;;;;5045232;28;20522;-65